sensor_id;sensor_type;location;lat;lon;timestamp;temperature;humidity
15364;DHT22;7781;49.690;6.472;2024-03-02T00:02:14;8.60;99.90
15364;DHT22;7781;49.690;6.472;2024-03-02T00:04:44;8.60;99.90
15364;DHT22;7781;49.690;6.472;2024-03-02T00:07:14;8.50;99.90
15364;DHT22;7781;49.690;6.472;2024-03-02T00:09:42;8.50;99.90
15364;DHT22;7781;49.690;6.472;2024-03-02T00:12:15;8.40;99.90
15364;DHT22;7781;49.690;6.472;2024-03-02T00:14:45;8.40;99.90
15364;DHT22;7781;49.690;6.472;2024-03-02T00:17:21;8.30;99.90
15364;DHT22;7781;49.690;6.472;2024-03-02T00:19:52;8.30;99.90
15364;DHT22;7781;49.690;6.472;2024-03-02T00:22:21;8.40;99.90
15364;DHT22;7781;49.690;6.472;2024-03-02T00:24:49;8.40;99.90
15364;DHT22;7781;49.690;6.472;2024-03-02T00:27:18;8.40;99.90
15364;DHT22;7781;49.690;6.472;2024-03-02T00:29:49;8.50;99.90
15364;DHT22;7781;49.690;6.472;2024-03-02T00:32:18;8.40;99.90
15364;DHT22;7781;49.690;6.472;2024-03-02T00:34:47;8.50;99.90
15364;DHT22;7781;49.690;6.472;2024-03-02T00:37:17;8.40;99.90
15364;DHT22;7781;49.690;6.472;2024-03-02T00:39:50;8.40;99.90
15364;DHT22;7781;49.690;6.472;2024-03-02T00:42:18;8.40;99.90
15364;DHT22;7781;49.690;6.472;2024-03-02T00:44:46;8.50;99.90
15364;DHT22;7781;49.690;6.472;2024-03-02T00:47:17;8.50;99.90
15364;DHT22;7781;49.690;6.472;2024-03-02T00:49:47;8.50;99.90
15364;DHT22;7781;49.690;6.472;2024-03-02T00:52:15;8.40;99.90
15364;DHT22;7781;49.690;6.472;2024-03-02T00:54:45;8.40;99.90
15364;DHT22;7781;49.690;6.472;2024-03-02T00:57:14;8.40;99.90
15364;DHT22;7781;49.690;6.472;2024-03-02T00:59:45;8.40;99.90
15364;DHT22;7781;49.690;6.472;2024-03-02T01:02:16;8.30;99.90
15364;DHT22;7781;49.690;6.472;2024-03-02T01:04:49;8.30;99.90
15364;DHT22;7781;49.690;6.472;2024-03-02T01:07:17;8.40;99.90
15364;DHT22;7781;49.690;6.472;2024-03-02T01:09:48;8.50;99.90
15364;DHT22;7781;49.690;6.472;2024-03-02T01:12:17;8.60;99.90
15364;DHT22;7781;49.690;6.472;2024-03-02T01:14:45;8.60;99.90
15364;DHT22;7781;49.690;6.472;2024-03-02T01:17:16;8.60;99.90
15364;DHT22;7781;49.690;6.472;2024-03-02T01:19:44;8.60;99.90
15364;DHT22;7781;49.690;6.472;2024-03-02T01:22:12;8.60;99.90
15364;DHT22;7781;49.690;6.472;2024-03-02T01:24:43;8.50;99.90
15364;DHT22;7781;49.690;6.472;2024-03-02T01:27:12;8.50;99.90
15364;DHT22;7781;49.690;6.472;2024-03-02T01:29:41;8.50;99.90
15364;DHT22;7781;49.690;6.472;2024-03-02T01:32:09;8.60;99.90
15364;DHT22;7781;49.690;6.472;2024-03-02T01:34:42;8.60;99.90
15364;DHT22;7781;49.690;6.472;2024-03-02T01:37:13;8.70;99.90
15364;DHT22;7781;49.690;6.472;2024-03-02T01:39:42;8.70;99.90
15364;DHT22;7781;49.690;6.472;2024-03-02T01:42:11;8.70;99.90
15364;DHT22;7781;49.690;6.472;2024-03-02T01:44:40;8.70;99.90
15364;DHT22;7781;49.690;6.472;2024-03-02T01:47:10;8.70;99.90
15364;DHT22;7781;49.690;6.472;2024-03-02T01:49:39;8.70;99.90
15364;DHT22;7781;49.690;6.472;2024-03-02T01:52:11;8.70;99.90
15364;DHT22;7781;49.690;6.472;2024-03-02T01:54:39;8.70;99.90
15364;DHT22;7781;49.690;6.472;2024-03-02T01:57:09;8.70;99.90
15364;DHT22;7781;49.690;6.472;2024-03-02T01:59:40;8.70;99.90
15364;DHT22;7781;49.690;6.472;2024-03-02T02:02:09;8.70;99.90
15364;DHT22;7781;49.690;6.472;2024-03-02T02:05:05;8.60;99.90
15364;DHT22;7781;49.690;6.472;2024-03-02T02:07:36;8.70;99.90
15364;DHT22;7781;49.690;6.472;2024-03-02T02:10:06;8.60;99.90
15364;DHT22;7781;49.690;6.472;2024-03-02T02:12:36;8.60;99.90
15364;DHT22;7781;49.690;6.472;2024-03-02T02:15:23;8.60;99.90
15364;DHT22;7781;49.690;6.472;2024-03-02T02:17:52;8.60;99.90
15364;DHT22;7781;49.690;6.472;2024-03-02T02:20:22;8.60;99.90
15364;DHT22;7781;49.690;6.472;2024-03-02T02:23:00;8.60;99.90
15364;DHT22;7781;49.690;6.472;2024-03-02T02:25:30;8.60;99.90
15364;DHT22;7781;49.690;6.472;2024-03-02T02:28:01;8.60;99.90
15364;DHT22;7781;49.690;6.472;2024-03-02T02:30:31;8.60;99.90
15364;DHT22;7781;49.690;6.472;2024-03-02T02:33:02;8.70;99.90
15364;DHT22;7781;49.690;6.472;2024-03-02T02:35:33;8.70;99.90
15364;DHT22;7781;49.690;6.472;2024-03-02T02:38:03;8.60;99.90
15364;DHT22;7781;49.690;6.472;2024-03-02T02:40:33;8.60;99.90
15364;DHT22;7781;49.690;6.472;2024-03-02T02:43:02;8.60;99.90
15364;DHT22;7781;49.690;6.472;2024-03-02T02:45:32;8.60;99.90
15364;DHT22;7781;49.690;6.472;2024-03-02T02:48:01;8.60;99.90
15364;DHT22;7781;49.690;6.472;2024-03-02T02:50:30;8.50;99.90
15364;DHT22;7781;49.690;6.472;2024-03-02T02:52:59;8.50;99.90
15364;DHT22;7781;49.690;6.472;2024-03-02T02:55:28;8.50;99.90
15364;DHT22;7781;49.690;6.472;2024-03-02T02:57:57;8.50;99.90
15364;DHT22;7781;49.690;6.472;2024-03-02T03:00:26;8.40;99.90
15364;DHT22;7781;49.690;6.472;2024-03-02T03:02:55;8.40;99.90
15364;DHT22;7781;49.690;6.472;2024-03-02T03:05:26;8.40;99.90
15364;DHT22;7781;49.690;6.472;2024-03-02T03:07:54;8.30;99.90
15364;DHT22;7781;49.690;6.472;2024-03-02T03:10:23;8.30;99.90
15364;DHT22;7781;49.690;6.472;2024-03-02T03:12:55;8.20;99.90
15364;DHT22;7781;49.690;6.472;2024-03-02T03:15:24;8.20;99.90
15364;DHT22;7781;49.690;6.472;2024-03-02T03:17:52;8.10;99.90
15364;DHT22;7781;49.690;6.472;2024-03-02T03:20:21;8.00;99.90
15364;DHT22;7781;49.690;6.472;2024-03-02T03:22:50;8.00;99.90
15364;DHT22;7781;49.690;6.472;2024-03-02T03:25:19;7.90;99.90
15364;DHT22;7781;49.690;6.472;2024-03-02T03:27:47;7.90;99.90
15364;DHT22;7781;49.690;6.472;2024-03-02T03:30:17;7.90;99.90
15364;DHT22;7781;49.690;6.472;2024-03-02T03:32:47;7.80;99.90
15364;DHT22;7781;49.690;6.472;2024-03-02T03:35:18;7.80;99.90
15364;DHT22;7781;49.690;6.472;2024-03-02T03:37:47;7.80;99.90
15364;DHT22;7781;49.690;6.472;2024-03-02T03:40:17;7.80;99.90
15364;DHT22;7781;49.690;6.472;2024-03-02T03:42:46;7.70;99.90
15364;DHT22;7781;49.690;6.472;2024-03-02T03:45:19;7.70;99.90
15364;DHT22;7781;49.690;6.472;2024-03-02T03:47:48;7.70;99.90
15364;DHT22;7781;49.690;6.472;2024-03-02T03:50:17;7.70;99.90
15364;DHT22;7781;49.690;6.472;2024-03-02T03:52:46;7.70;99.90
15364;DHT22;7781;49.690;6.472;2024-03-02T03:55:15;7.60;99.90
15364;DHT22;7781;49.690;6.472;2024-03-02T03:57:45;7.60;99.90
15364;DHT22;7781;49.690;6.472;2024-03-02T04:00:14;7.60;99.90
15364;DHT22;7781;49.690;6.472;2024-03-02T04:02:45;7.50;99.90
15364;DHT22;7781;49.690;6.472;2024-03-02T04:05:14;7.50;99.90
15364;DHT22;7781;49.690;6.472;2024-03-02T04:07:42;7.50;99.90
15364;DHT22;7781;49.690;6.472;2024-03-02T04:10:11;7.50;99.90
15364;DHT22;7781;49.690;6.472;2024-03-02T04:12:40;7.50;99.90
15364;DHT22;7781;49.690;6.472;2024-03-02T04:15:09;7.40;99.90
15364;DHT22;7781;49.690;6.472;2024-03-02T04:17:38;7.40;99.90
15364;DHT22;7781;49.690;6.472;2024-03-02T04:20:10;7.40;99.90
15364;DHT22;7781;49.690;6.472;2024-03-02T04:22:40;7.30;99.90
15364;DHT22;7781;49.690;6.472;2024-03-02T04:25:08;7.40;99.90
15364;DHT22;7781;49.690;6.472;2024-03-02T04:27:37;7.30;99.90
15364;DHT22;7781;49.690;6.472;2024-03-02T04:30:08;7.20;99.90
15364;DHT22;7781;49.690;6.472;2024-03-02T04:32:37;7.20;99.90
15364;DHT22;7781;49.690;6.472;2024-03-02T04:35:06;7.20;99.90
15364;DHT22;7781;49.690;6.472;2024-03-02T04:37:37;7.20;99.90
15364;DHT22;7781;49.690;6.472;2024-03-02T04:40:06;7.20;99.90
15364;DHT22;7781;49.690;6.472;2024-03-02T04:42:36;7.20;99.90
15364;DHT22;7781;49.690;6.472;2024-03-02T04:45:06;7.20;99.90
15364;DHT22;7781;49.690;6.472;2024-03-02T04:47:35;7.10;99.90
15364;DHT22;7781;49.690;6.472;2024-03-02T04:50:04;7.10;99.90
15364;DHT22;7781;49.690;6.472;2024-03-02T04:52:37;7.10;99.90
15364;DHT22;7781;49.690;6.472;2024-03-02T04:55:06;7.10;99.90
15364;DHT22;7781;49.690;6.472;2024-03-02T04:57:47;7.10;99.90
15364;DHT22;7781;49.690;6.472;2024-03-02T05:00:18;7.10;99.90
15364;DHT22;7781;49.690;6.472;2024-03-02T05:02:46;7.10;99.90
15364;DHT22;7781;49.690;6.472;2024-03-02T05:05:15;7.00;99.90
15364;DHT22;7781;49.690;6.472;2024-03-02T05:07:45;7.00;99.90
15364;DHT22;7781;49.690;6.472;2024-03-02T05:10:16;7.00;99.90
15364;DHT22;7781;49.690;6.472;2024-03-02T05:12:44;7.00;99.90
15364;DHT22;7781;49.690;6.472;2024-03-02T05:15:25;7.00;99.90
15364;DHT22;7781;49.690;6.472;2024-03-02T05:17:54;7.00;99.90
15364;DHT22;7781;49.690;6.472;2024-03-02T05:20:24;7.00;99.90
15364;DHT22;7781;49.690;6.472;2024-03-02T05:22:54;7.10;99.90
15364;DHT22;7781;49.690;6.472;2024-03-02T05:25:23;7.00;99.90
15364;DHT22;7781;49.690;6.472;2024-03-02T05:27:52;7.00;99.90
15364;DHT22;7781;49.690;6.472;2024-03-02T05:30:20;7.00;99.90
15364;DHT22;7781;49.690;6.472;2024-03-02T05:32:49;7.00;99.90
15364;DHT22;7781;49.690;6.472;2024-03-02T05:35:18;7.00;99.90
15364;DHT22;7781;49.690;6.472;2024-03-02T05:37:47;7.00;99.90
15364;DHT22;7781;49.690;6.472;2024-03-02T05:40:17;7.00;99.90
15364;DHT22;7781;49.690;6.472;2024-03-02T05:42:49;7.00;99.90
15364;DHT22;7781;49.690;6.472;2024-03-02T05:45:17;7.00;99.90
15364;DHT22;7781;49.690;6.472;2024-03-02T05:47:46;7.10;99.90
15364;DHT22;7781;49.690;6.472;2024-03-02T05:50:15;7.10;99.90
15364;DHT22;7781;49.690;6.472;2024-03-02T05:52:44;7.10;99.90
15364;DHT22;7781;49.690;6.472;2024-03-02T05:55:13;7.10;99.90
15364;DHT22;7781;49.690;6.472;2024-03-02T05:57:43;7.10;99.90
15364;DHT22;7781;49.690;6.472;2024-03-02T06:00:26;7.10;99.90
15364;DHT22;7781;49.690;6.472;2024-03-02T06:02:55;7.10;99.90
15364;DHT22;7781;49.690;6.472;2024-03-02T06:05:23;7.00;99.90
15364;DHT22;7781;49.690;6.472;2024-03-02T06:07:52;7.10;99.90
15364;DHT22;7781;49.690;6.472;2024-03-02T06:10:20;7.10;99.90
15364;DHT22;7781;49.690;6.472;2024-03-02T06:12:50;7.10;99.90
15364;DHT22;7781;49.690;6.472;2024-03-02T06:15:19;7.10;99.90
15364;DHT22;7781;49.690;6.472;2024-03-02T06:17:47;7.10;99.90
15364;DHT22;7781;49.690;6.472;2024-03-02T06:20:17;7.10;99.90
15364;DHT22;7781;49.690;6.472;2024-03-02T06:22:46;7.10;99.90
15364;DHT22;7781;49.690;6.472;2024-03-02T06:25:15;7.00;99.90
15364;DHT22;7781;49.690;6.472;2024-03-02T06:27:45;7.00;99.90
15364;DHT22;7781;49.690;6.472;2024-03-02T06:30:15;7.00;99.90
15364;DHT22;7781;49.690;6.472;2024-03-02T06:32:44;7.00;99.90
15364;DHT22;7781;49.690;6.472;2024-03-02T06:35:13;7.00;99.90
15364;DHT22;7781;49.690;6.472;2024-03-02T06:37:42;7.00;99.90
15364;DHT22;7781;49.690;6.472;2024-03-02T06:40:11;7.10;99.90
15364;DHT22;7781;49.690;6.472;2024-03-02T06:42:40;7.10;99.90
15364;DHT22;7781;49.690;6.472;2024-03-02T06:45:08;7.10;99.90
15364;DHT22;7781;49.690;6.472;2024-03-02T06:47:38;7.10;99.90
15364;DHT22;7781;49.690;6.472;2024-03-02T06:50:08;7.10;99.90
15364;DHT22;7781;49.690;6.472;2024-03-02T06:52:36;7.10;99.90
15364;DHT22;7781;49.690;6.472;2024-03-02T06:55:06;7.10;99.90
15364;DHT22;7781;49.690;6.472;2024-03-02T06:57:35;7.10;99.90
15364;DHT22;7781;49.690;6.472;2024-03-02T07:00:04;7.10;99.90
15364;DHT22;7781;49.690;6.472;2024-03-02T07:02:35;7.20;99.90
15364;DHT22;7781;49.690;6.472;2024-03-02T07:05:06;7.20;99.90
15364;DHT22;7781;49.690;6.472;2024-03-02T07:07:36;7.30;99.90
15364;DHT22;7781;49.690;6.472;2024-03-02T07:10:14;7.40;99.90
15364;DHT22;7781;49.690;6.472;2024-03-02T07:12:43;7.40;99.90
15364;DHT22;7781;49.690;6.472;2024-03-02T07:15:12;7.40;99.90
15364;DHT22;7781;49.690;6.472;2024-03-02T07:18:10;7.50;99.90
15364;DHT22;7781;49.690;6.472;2024-03-02T07:20:40;7.60;99.90
15364;DHT22;7781;49.690;6.472;2024-03-02T07:23:09;7.70;99.90
15364;DHT22;7781;49.690;6.472;2024-03-02T07:25:37;7.70;99.90
15364;DHT22;7781;49.690;6.472;2024-03-02T07:28:09;7.70;99.90
15364;DHT22;7781;49.690;6.472;2024-03-02T07:30:44;7.80;99.90
15364;DHT22;7781;49.690;6.472;2024-03-02T07:33:12;7.80;99.90
15364;DHT22;7781;49.690;6.472;2024-03-02T07:35:45;8.00;99.90
15364;DHT22;7781;49.690;6.472;2024-03-02T07:38:14;8.10;99.90
15364;DHT22;7781;49.690;6.472;2024-03-02T07:40:43;8.10;99.90
15364;DHT22;7781;49.690;6.472;2024-03-02T07:43:11;8.10;99.90
15364;DHT22;7781;49.690;6.472;2024-03-02T07:45:40;8.20;99.90
15364;DHT22;7781;49.690;6.472;2024-03-02T07:48:09;8.20;99.90
15364;DHT22;7781;49.690;6.472;2024-03-02T07:50:38;8.30;99.90
15364;DHT22;7781;49.690;6.472;2024-03-02T07:53:10;8.20;99.90
15364;DHT22;7781;49.690;6.472;2024-03-02T07:55:38;8.30;99.90
15364;DHT22;7781;49.690;6.472;2024-03-02T07:58:07;8.30;99.90
15364;DHT22;7781;49.690;6.472;2024-03-02T08:00:36;8.20;99.90
15364;DHT22;7781;49.690;6.472;2024-03-02T08:03:04;8.30;99.90
15364;DHT22;7781;49.690;6.472;2024-03-02T08:05:34;8.30;99.90
15364;DHT22;7781;49.690;6.472;2024-03-02T08:08:04;8.30;99.90
15364;DHT22;7781;49.690;6.472;2024-03-02T08:10:36;8.20;99.90
15364;DHT22;7781;49.690;6.472;2024-03-02T08:13:05;8.10;99.90
15364;DHT22;7781;49.690;6.472;2024-03-02T08:15:33;8.10;99.90
15364;DHT22;7781;49.690;6.472;2024-03-02T08:18:02;8.10;99.90
15364;DHT22;7781;49.690;6.472;2024-03-02T08:20:30;8.10;99.90
15364;DHT22;7781;49.690;6.472;2024-03-02T08:22:59;8.20;99.90
15364;DHT22;7781;49.690;6.472;2024-03-02T08:25:27;8.30;99.90
15364;DHT22;7781;49.690;6.472;2024-03-02T08:27:58;8.30;99.90
15364;DHT22;7781;49.690;6.472;2024-03-02T08:30:26;8.40;99.90
15364;DHT22;7781;49.690;6.472;2024-03-02T08:32:55;8.50;99.90
15364;DHT22;7781;49.690;6.472;2024-03-02T08:35:23;8.50;99.90
15364;DHT22;7781;49.690;6.472;2024-03-02T08:37:52;8.50;99.90
15364;DHT22;7781;49.690;6.472;2024-03-02T08:40:20;8.50;99.90
15364;DHT22;7781;49.690;6.472;2024-03-02T08:42:49;8.50;99.90
15364;DHT22;7781;49.690;6.472;2024-03-02T08:45:19;8.50;99.90
15364;DHT22;7781;49.690;6.472;2024-03-02T08:47:48;8.60;99.90
15364;DHT22;7781;49.690;6.472;2024-03-02T08:50:19;8.60;99.90
15364;DHT22;7781;49.690;6.472;2024-03-02T08:52:49;8.70;99.90
15364;DHT22;7781;49.690;6.472;2024-03-02T08:55:19;8.70;99.90
15364;DHT22;7781;49.690;6.472;2024-03-02T08:57:48;8.70;99.90
15364;DHT22;7781;49.690;6.472;2024-03-02T09:00:20;8.70;99.90
15364;DHT22;7781;49.690;6.472;2024-03-02T09:02:49;8.70;99.90
15364;DHT22;7781;49.690;6.472;2024-03-02T09:05:18;8.70;99.90
15364;DHT22;7781;49.690;6.472;2024-03-02T09:07:46;8.70;99.90
15364;DHT22;7781;49.690;6.472;2024-03-02T09:10:15;8.70;99.90
15364;DHT22;7781;49.690;6.472;2024-03-02T09:12:43;8.70;99.90
15364;DHT22;7781;49.690;6.472;2024-03-02T09:15:12;8.80;99.90
15364;DHT22;7781;49.690;6.472;2024-03-02T09:17:42;8.80;99.90
15364;DHT22;7781;49.690;6.472;2024-03-02T09:20:12;8.80;99.90
15364;DHT22;7781;49.690;6.472;2024-03-02T09:22:41;8.70;99.90
15364;DHT22;7781;49.690;6.472;2024-03-02T09:25:09;8.70;99.90
15364;DHT22;7781;49.690;6.472;2024-03-02T09:27:38;8.70;99.90
15364;DHT22;7781;49.690;6.472;2024-03-02T09:30:08;8.80;99.90
15364;DHT22;7781;49.690;6.472;2024-03-02T09:32:37;8.80;99.90
15364;DHT22;7781;49.690;6.472;2024-03-02T09:35:08;8.80;99.90
15364;DHT22;7781;49.690;6.472;2024-03-02T09:37:37;8.80;99.90
15364;DHT22;7781;49.690;6.472;2024-03-02T09:40:07;8.80;99.90
15364;DHT22;7781;49.690;6.472;2024-03-02T09:42:35;8.80;99.90
15364;DHT22;7781;49.690;6.472;2024-03-02T09:45:05;8.80;99.90
15364;DHT22;7781;49.690;6.472;2024-03-02T09:47:34;8.90;99.90
15364;DHT22;7781;49.690;6.472;2024-03-02T09:50:03;8.90;99.90
15364;DHT22;7781;49.690;6.472;2024-03-02T09:52:33;9.00;99.90
15364;DHT22;7781;49.690;6.472;2024-03-02T09:55:03;9.20;99.90
15364;DHT22;7781;49.690;6.472;2024-03-02T09:57:32;9.30;99.90
15364;DHT22;7781;49.690;6.472;2024-03-02T10:00:01;9.40;99.90
15364;DHT22;7781;49.690;6.472;2024-03-02T10:02:30;9.50;99.90
15364;DHT22;7781;49.690;6.472;2024-03-02T10:04:59;9.70;99.90
15364;DHT22;7781;49.690;6.472;2024-03-02T10:07:33;9.80;99.90
15364;DHT22;7781;49.690;6.472;2024-03-02T10:10:12;9.80;99.90
15364;DHT22;7781;49.690;6.472;2024-03-02T10:13:03;9.80;99.90
15364;DHT22;7781;49.690;6.472;2024-03-02T10:15:32;9.60;99.90
15364;DHT22;7781;49.690;6.472;2024-03-02T10:18:01;9.70;99.90
15364;DHT22;7781;49.690;6.472;2024-03-02T10:20:29;9.80;99.90
15364;DHT22;7781;49.690;6.472;2024-03-02T10:23:14;9.70;99.90
15364;DHT22;7781;49.690;6.472;2024-03-02T10:25:43;9.70;99.90
15364;DHT22;7781;49.690;6.472;2024-03-02T10:28:24;9.80;99.90
15364;DHT22;7781;49.690;6.472;2024-03-02T10:30:55;9.70;99.90
15364;DHT22;7781;49.690;6.472;2024-03-02T10:33:24;9.70;99.90
15364;DHT22;7781;49.690;6.472;2024-03-02T10:35:55;9.80;99.90
15364;DHT22;7781;49.690;6.472;2024-03-02T10:38:27;10.00;99.90
15364;DHT22;7781;49.690;6.472;2024-03-02T10:40:58;10.10;99.90
15364;DHT22;7781;49.690;6.472;2024-03-02T10:43:27;10.30;99.90
15364;DHT22;7781;49.690;6.472;2024-03-02T10:45:56;10.60;99.90
15364;DHT22;7781;49.690;6.472;2024-03-02T10:48:27;10.70;99.90
15364;DHT22;7781;49.690;6.472;2024-03-02T10:50:56;10.80;99.90
15364;DHT22;7781;49.690;6.472;2024-03-02T10:53:30;10.90;99.90
15364;DHT22;7781;49.690;6.472;2024-03-02T10:56:00;10.90;99.90
15364;DHT22;7781;49.690;6.472;2024-03-02T10:58:32;10.80;99.90
15364;DHT22;7781;49.690;6.472;2024-03-02T11:01:04;10.90;99.90
15364;DHT22;7781;49.690;6.472;2024-03-02T11:03:35;10.90;99.90
15364;DHT22;7781;49.690;6.472;2024-03-02T11:06:08;10.80;99.90
15364;DHT22;7781;49.690;6.472;2024-03-02T11:08:41;10.80;99.90
15364;DHT22;7781;49.690;6.472;2024-03-02T11:11:15;10.70;99.90
15364;DHT22;7781;49.690;6.472;2024-03-02T11:13:49;10.70;99.90
15364;DHT22;7781;49.690;6.472;2024-03-02T11:16:25;10.80;99.90
15364;DHT22;7781;49.690;6.472;2024-03-02T11:19:01;10.80;99.90
15364;DHT22;7781;49.690;6.472;2024-03-02T11:21:31;11.00;99.90
15364;DHT22;7781;49.690;6.472;2024-03-02T11:24:31;11.10;99.90
15364;DHT22;7781;49.690;6.472;2024-03-02T11:27:05;11.10;99.90
15364;DHT22;7781;49.690;6.472;2024-03-02T11:29:44;11.20;99.90
15364;DHT22;7781;49.690;6.472;2024-03-02T11:32:15;11.30;99.90
15364;DHT22;7781;49.690;6.472;2024-03-02T11:34:45;11.40;99.90
15364;DHT22;7781;49.690;6.472;2024-03-02T11:37:15;11.50;99.90
15364;DHT22;7781;49.690;6.472;2024-03-02T11:39:45;11.60;99.90
15364;DHT22;7781;49.690;6.472;2024-03-02T11:42:15;11.70;99.90
15364;DHT22;7781;49.690;6.472;2024-03-02T11:44:46;11.60;99.90
15364;DHT22;7781;49.690;6.472;2024-03-02T11:47:16;11.60;99.90
15364;DHT22;7781;49.690;6.472;2024-03-02T11:49:46;11.90;99.90
15364;DHT22;7781;49.690;6.472;2024-03-02T11:52:16;12.10;99.90
15364;DHT22;7781;49.690;6.472;2024-03-02T11:54:47;12.30;99.90
15364;DHT22;7781;49.690;6.472;2024-03-02T11:57:21;12.50;99.90
15364;DHT22;7781;49.690;6.472;2024-03-02T11:59:51;12.50;99.90
15364;DHT22;7781;49.690;6.472;2024-03-02T12:02:20;12.70;99.90
15364;DHT22;7781;49.690;6.472;2024-03-02T12:04:50;12.70;99.90
15364;DHT22;7781;49.690;6.472;2024-03-02T12:07:20;12.70;99.90
15364;DHT22;7781;49.690;6.472;2024-03-02T12:10:01;12.70;99.90
15364;DHT22;7781;49.690;6.472;2024-03-02T12:12:31;12.50;99.90
15364;DHT22;7781;49.690;6.472;2024-03-02T12:15:00;12.40;99.90
15364;DHT22;7781;49.690;6.472;2024-03-02T12:17:30;12.40;99.90
15364;DHT22;7781;49.690;6.472;2024-03-02T12:19:58;12.30;99.90
15364;DHT22;7781;49.690;6.472;2024-03-02T12:22:30;12.50;99.90
15364;DHT22;7781;49.690;6.472;2024-03-02T12:25:00;12.90;99.90
15364;DHT22;7781;49.690;6.472;2024-03-02T12:27:32;13.30;99.90
15364;DHT22;7781;49.690;6.472;2024-03-02T12:30:01;13.40;99.90
15364;DHT22;7781;49.690;6.472;2024-03-02T12:32:30;13.70;99.90
15364;DHT22;7781;49.690;6.472;2024-03-02T12:34:58;13.80;99.90
15364;DHT22;7781;49.690;6.472;2024-03-02T12:37:28;14.10;99.90
15364;DHT22;7781;49.690;6.472;2024-03-02T12:39:57;14.10;99.90
15364;DHT22;7781;49.690;6.472;2024-03-02T12:42:27;14.10;99.90
15364;DHT22;7781;49.690;6.472;2024-03-02T12:44:55;13.70;99.90
15364;DHT22;7781;49.690;6.472;2024-03-02T12:47:24;13.80;99.90
15364;DHT22;7781;49.690;6.472;2024-03-02T12:49:53;14.00;99.90
15364;DHT22;7781;49.690;6.472;2024-03-02T12:52:23;14.20;99.90
15364;DHT22;7781;49.690;6.472;2024-03-02T12:54:51;14.20;99.90
15364;DHT22;7781;49.690;6.472;2024-03-02T12:57:30;13.60;99.90
15364;DHT22;7781;49.690;6.472;2024-03-02T13:00:01;13.50;99.90
15364;DHT22;7781;49.690;6.472;2024-03-02T13:02:40;13.50;99.90
15364;DHT22;7781;49.690;6.472;2024-03-02T13:05:11;13.30;99.90
15364;DHT22;7781;49.690;6.472;2024-03-02T13:07:40;13.30;99.90
15364;DHT22;7781;49.690;6.472;2024-03-02T13:10:09;13.40;99.90
15364;DHT22;7781;49.690;6.472;2024-03-02T13:12:40;13.60;99.90
15364;DHT22;7781;49.690;6.472;2024-03-02T13:15:10;13.70;99.90
15364;DHT22;7781;49.690;6.472;2024-03-02T13:17:44;13.80;99.90
15364;DHT22;7781;49.690;6.472;2024-03-02T13:20:14;14.00;99.90
15364;DHT22;7781;49.690;6.472;2024-03-02T13:22:45;14.10;99.90
15364;DHT22;7781;49.690;6.472;2024-03-02T13:25:14;14.10;99.90
15364;DHT22;7781;49.690;6.472;2024-03-02T13:27:44;13.90;99.90
15364;DHT22;7781;49.690;6.472;2024-03-02T13:30:13;13.90;99.90
15364;DHT22;7781;49.690;6.472;2024-03-02T13:32:41;13.90;99.90
15364;DHT22;7781;49.690;6.472;2024-03-02T13:35:10;14.00;99.90
15364;DHT22;7781;49.690;6.472;2024-03-02T13:37:39;14.00;99.90
15364;DHT22;7781;49.690;6.472;2024-03-02T13:40:10;14.00;99.90
15364;DHT22;7781;49.690;6.472;2024-03-02T13:42:41;13.90;99.90
15364;DHT22;7781;49.690;6.472;2024-03-02T13:45:11;13.90;99.90
15364;DHT22;7781;49.690;6.472;2024-03-02T13:47:44;13.90;99.90
15364;DHT22;7781;49.690;6.472;2024-03-02T13:50:14;13.80;99.90
15364;DHT22;7781;49.690;6.472;2024-03-02T13:52:42;13.80;99.90
15364;DHT22;7781;49.690;6.472;2024-03-02T13:55:11;13.90;99.90
15364;DHT22;7781;49.690;6.472;2024-03-02T13:57:39;13.80;99.90
15364;DHT22;7781;49.690;6.472;2024-03-02T14:00:11;13.50;99.90
15364;DHT22;7781;49.690;6.472;2024-03-02T14:02:40;13.60;99.90
15364;DHT22;7781;49.690;6.472;2024-03-02T14:05:10;13.70;99.90
15364;DHT22;7781;49.690;6.472;2024-03-02T14:07:41;13.80;99.90
15364;DHT22;7781;49.690;6.472;2024-03-02T14:10:10;13.70;99.90
15364;DHT22;7781;49.690;6.472;2024-03-02T14:12:43;13.80;99.90
15364;DHT22;7781;49.690;6.472;2024-03-02T14:15:13;13.80;99.90
15364;DHT22;7781;49.690;6.472;2024-03-02T14:17:44;14.10;99.90
15364;DHT22;7781;49.690;6.472;2024-03-02T14:20:12;14.30;99.90
15364;DHT22;7781;49.690;6.472;2024-03-02T14:22:41;13.80;99.90
15364;DHT22;7781;49.690;6.472;2024-03-02T14:25:10;13.70;99.90
15364;DHT22;7781;49.690;6.472;2024-03-02T14:27:42;13.30;99.90
15364;DHT22;7781;49.690;6.472;2024-03-02T14:30:17;13.30;99.90
15364;DHT22;7781;49.690;6.472;2024-03-02T14:32:46;13.40;99.90
15364;DHT22;7781;49.690;6.472;2024-03-02T14:35:16;13.60;99.90
15364;DHT22;7781;49.690;6.472;2024-03-02T14:37:45;13.60;99.90
15364;DHT22;7781;49.690;6.472;2024-03-02T14:40:14;13.70;99.90
15364;DHT22;7781;49.690;6.472;2024-03-02T14:42:43;13.70;99.90
15364;DHT22;7781;49.690;6.472;2024-03-02T14:45:14;13.70;99.90
15364;DHT22;7781;49.690;6.472;2024-03-02T14:47:44;13.50;99.90
15364;DHT22;7781;49.690;6.472;2024-03-02T14:50:13;13.60;99.90
15364;DHT22;7781;49.690;6.472;2024-03-02T14:52:44;13.60;99.90
15364;DHT22;7781;49.690;6.472;2024-03-02T14:55:15;13.30;99.90
15364;DHT22;7781;49.690;6.472;2024-03-02T14:57:44;13.30;99.90
15364;DHT22;7781;49.690;6.472;2024-03-02T15:00:13;13.10;99.90
15364;DHT22;7781;49.690;6.472;2024-03-02T15:02:43;13.10;99.90
15364;DHT22;7781;49.690;6.472;2024-03-02T15:05:12;13.10;99.90
15364;DHT22;7781;49.690;6.472;2024-03-02T15:07:40;13.00;99.90
15364;DHT22;7781;49.690;6.472;2024-03-02T15:10:09;12.90;99.90
15364;DHT22;7781;49.690;6.472;2024-03-02T15:12:40;12.90;99.90
15364;DHT22;7781;49.690;6.472;2024-03-02T15:15:09;13.00;99.90
15364;DHT22;7781;49.690;6.472;2024-03-02T15:17:38;12.90;99.90
15364;DHT22;7781;49.690;6.472;2024-03-02T15:20:09;13.00;99.90
15364;DHT22;7781;49.690;6.472;2024-03-02T15:22:38;12.90;99.90
15364;DHT22;7781;49.690;6.472;2024-03-02T15:25:07;12.90;99.90
15364;DHT22;7781;49.690;6.472;2024-03-02T15:27:39;12.80;99.90
15364;DHT22;7781;49.690;6.472;2024-03-02T15:30:08;12.60;99.90
15364;DHT22;7781;49.690;6.472;2024-03-02T15:32:39;12.50;99.90
15364;DHT22;7781;49.690;6.472;2024-03-02T15:35:09;12.40;99.90
15364;DHT22;7781;49.690;6.472;2024-03-02T15:37:37;12.40;99.90
15364;DHT22;7781;49.690;6.472;2024-03-02T15:40:07;12.40;99.90
15364;DHT22;7781;49.690;6.472;2024-03-02T15:42:35;12.30;99.90
15364;DHT22;7781;49.690;6.472;2024-03-02T15:45:05;12.40;99.90
15364;DHT22;7781;49.690;6.472;2024-03-02T15:47:35;12.30;99.90
15364;DHT22;7781;49.690;6.472;2024-03-02T15:50:09;12.40;99.90
15364;DHT22;7781;49.690;6.472;2024-03-02T15:52:38;12.30;99.90
15364;DHT22;7781;49.690;6.472;2024-03-02T15:55:08;12.30;99.90
15364;DHT22;7781;49.690;6.472;2024-03-02T15:57:37;12.40;99.90
15364;DHT22;7781;49.690;6.472;2024-03-02T16:00:06;12.40;99.90
15364;DHT22;7781;49.690;6.472;2024-03-02T16:02:40;12.40;99.90
15364;DHT22;7781;49.690;6.472;2024-03-02T16:05:10;12.30;99.90
15364;DHT22;7781;49.690;6.472;2024-03-02T16:07:38;12.30;99.90
15364;DHT22;7781;49.690;6.472;2024-03-02T16:10:07;12.30;99.90
15364;DHT22;7781;49.690;6.472;2024-03-02T16:12:37;12.30;99.90
15364;DHT22;7781;49.690;6.472;2024-03-02T16:15:06;12.30;99.90
15364;DHT22;7781;49.690;6.472;2024-03-02T16:17:36;12.20;99.90